Time;durP1;ratioP1;P1;durP2;ratioP2;P2;SDS_P1;SDS_P2;PMS_P1;PMS_P2;Temp;Humidity;BMP_temperature;BMP_pressure;BME280_temperature;BME280_humidity;BME280_pressure;Samples;Min_cycle;Max_cycle;Signal;HPM_P1;HPM_P2
2021/09/04 00:01:00;;;;;;;7.20;4.00;;;;;;;;;;5019721;28;20424;-69
2021/09/04 00:03:26;;;;;;;6.70;4.32;;;;;;;;;;5016507;28;20434;-70
2021/09/04 00:05:52;;;;;;;6.63;4.30;;;;;;;;;;5015060;28;20207;-73
2021/09/04 00:08:18;;;;;;;6.73;3.90;;;;;;;;;;5015129;28;20290;-73
2021/09/04 00:10:44;;;;;;;5.30;3.50;;;;;;;;;;5015310;28;20775;-72
2021/09/04 00:13:10;;;;;;;13.50;5.78;;;;;;;;;;5015227;28;20413;-71
2021/09/04 00:15:36;;;;;;;9.35;4.63;;;;;;;;;;5015178;28;20183;-70
2021/09/04 00:18:02;;;;;;;12.45;4.10;;;;;;;;;;5022113;28;20201;-72
2021/09/04 00:20:29;;;;;;;5.83;4.60;;;;;;;;;;5021536;28;20240;-72
2021/09/04 00:22:55;;;;;;;8.00;3.78;;;;;;;;;;5015070;28;20410;-73
2021/09/04 00:25:21;;;;;;;7.05;3.25;;;;;;;;;;5014880;28;20174;-73
2021/09/04 00:27:47;;;;;;;9.00;4.50;;;;;;;;;;5014725;28;20691;-71
2021/09/04 00:30:13;;;;;;;4.78;3.47;;;;;;;;;;5015542;28;20197;-71
2021/09/04 00:32:39;;;;;;;8.88;4.55;;;;;;;;;;5014970;28;20174;-73
2021/09/04 00:35:05;;;;;;;6.63;3.27;;;;;;;;;;5015743;28;20279;-71
2021/09/04 00:37:31;;;;;;;7.85;3.65;;;;;;;;;;5025140;28;20434;-73
2021/09/04 00:39:57;;;;;;;6.23;3.63;;;;;;;;;;5019570;28;20631;-72
2021/09/04 00:42:23;;;;;;;7.13;4.10;;;;;;;;;;5020967;28;20417;-75
2021/09/04 00:44:50;;;;;;;7.55;4.15;;;;;;;;;;5014122;28;20436;-73
2021/09/04 00:47:16;;;;;;;6.82;4.28;;;;;;;;;;5014299;28;20198;-70
2021/09/04 00:49:42;;;;;;;5.97;3.70;;;;;;;;;;5026225;28;20634;-73
2021/09/04 00:52:08;;;;;;;6.57;3.50;;;;;;;;;;5014536;28;20197;-72
2021/09/04 00:54:35;;;;;;;7.30;3.65;;;;;;;;;;5014196;28;20297;-72
2021/09/04 00:57:01;;;;;;;6.72;3.30;;;;;;;;;;5013695;28;20182;-72
2021/09/04 00:59:27;;;;;;;9.00;3.60;;;;;;;;;;5013991;28;20206;-71
2021/09/04 01:01:54;;;;;;;6.85;4.03;;;;;;;;;;5014430;28;20178;-73
2021/09/04 01:04:21;;;;;;;9.20;3.78;;;;;;;;;;5024104;28;20185;-71
2021/09/04 01:06:47;;;;;;;4.53;3.30;;;;;;;;;;5015229;28;20211;-73
2021/09/04 01:09:14;;;;;;;7.72;3.38;;;;;;;;;;5014144;28;20874;-74
2021/09/04 01:11:40;;;;;;;7.30;3.92;;;;;;;;;;5014113;28;20174;-71
2021/09/04 01:14:06;;;;;;;3.83;3.40;;;;;;;;;;5020711;28;20186;-74
2021/09/04 01:16:39;;;;;;;5.85;3.67;;;;;;;;;;5022659;28;20578;-73
2021/09/04 01:19:06;;;;;;;4.70;3.10;;;;;;;;;;5013884;28;20663;-69
2021/09/04 01:21:33;;;;;;;4.72;3.45;;;;;;;;;;5014362;28;20802;-72
2021/09/04 01:24:00;;;;;;;5.33;3.60;;;;;;;;;;5013955;28;20214;-73
2021/09/04 01:26:27;;;;;;;6.15;3.40;;;;;;;;;;5013939;28;20465;-74
2021/09/04 01:28:55;;;;;;;5.47;3.60;;;;;;;;;;5017366;28;20194;-71
2021/09/04 01:31:22;;;;;;;8.33;3.27;;;;;;;;;;5017754;28;20409;-71
2021/09/04 01:33:48;;;;;;;4.40;2.90;;;;;;;;;;5013805;28;20910;-73
2021/09/04 01:36:26;;;;;;;5.90;3.40;;;;;;;;;;5021501;28;20444;-73
2021/09/04 01:38:52;;;;;;;11.30;3.53;;;;;;;;;;5022067;28;20433;-74
2021/09/04 01:41:18;;;;;;;5.13;2.70;;;;;;;;;;5013838;28;20186;-73
2021/09/04 01:43:44;;;;;;;5.17;3.13;;;;;;;;;;5013579;28;20424;-73
2021/09/04 01:46:10;;;;;;;6.10;2.97;;;;;;;;;;5026292;28;20457;-71
2021/09/04 01:48:36;;;;;;;3.87;3.00;;;;;;;;;;5013432;28;20570;-71
2021/09/04 01:51:02;;;;;;;4.43;3.50;;;;;;;;;;5026333;28;20437;-73
2021/09/04 01:53:28;;;;;;;6.50;3.17;;;;;;;;;;5013537;28;20464;-73
2021/09/04 01:55:54;;;;;;;6.60;3.27;;;;;;;;;;5013507;28;20430;-72
2021/09/04 01:58:20;;;;;;;6.57;3.40;;;;;;;;;;5011932;28;20441;-72
2021/09/04 02:00:46;;;;;;;8.20;4.00;;;;;;;;;;5021903;28;20436;-74
2021/09/04 02:03:12;;;;;;;5.10;2.87;;;;;;;;;;5017280;28;20421;-74
2021/09/04 02:05:38;;;;;;;4.63;2.70;;;;;;;;;;5016725;28;20441;-74
2021/09/04 02:08:04;;;;;;;3.50;3.10;;;;;;;;;;5013393;28;20448;-74
2021/09/04 02:10:30;;;;;;;9.20;3.17;;;;;;;;;;5013301;28;20755;-74
2021/09/04 02:12:56;;;;;;;5.33;3.03;;;;;;;;;;5013577;28;20505;-74
2021/09/04 02:15:22;;;;;;;4.03;2.90;;;;;;;;;;5012981;28;20445;-71
2021/09/04 02:17:48;;;;;;;7.80;3.10;;;;;;;;;;5013243;28;20445;-71
2021/09/04 02:20:15;;;;;;;7.20;2.80;;;;;;;;;;5017390;28;20420;-73
2021/09/04 02:22:41;;;;;;;4.90;3.03;;;;;;;;;;5022175;28;20747;-72
2021/09/04 02:25:08;;;;;;;4.00;2.90;;;;;;;;;;5013649;28;20487;-73
2021/09/04 02:27:34;;;;;;;4.90;3.27;;;;;;;;;;5013522;28;20469;-71
2021/09/04 02:30:00;;;;;;;8.10;3.10;;;;;;;;;;5025448;28;20504;-72
2021/09/04 02:32:26;;;;;;;4.83;2.80;;;;;;;;;;5017108;28;20801;-72
2021/09/04 02:34:52;;;;;;;6.13;3.10;;;;;;;;;;5017122;28;20421;-72
2021/09/04 02:37:18;;;;;;;6.93;3.53;;;;;;;;;;5023800;28;20416;-74
2021/09/04 02:39:45;;;;;;;10.50;3.80;;;;;;;;;;5016971;28;20965;-73
2021/09/04 02:42:11;;;;;;;4.90;3.60;;;;;;;;;;5016929;28;20420;-73
2021/09/04 02:44:37;;;;;;;7.93;4.37;;;;;;;;;;5016969;28;20435;-74
2021/09/04 02:47:03;;;;;;;8.63;4.37;;;;;;;;;;5016425;28;20469;-73
2021/09/04 02:49:29;;;;;;;6.07;4.60;;;;;;;;;;5016899;28;20517;-72
2021/09/04 02:51:55;;;;;;;6.00;4.33;;;;;;;;;;5016620;28;20413;-72
2021/09/04 02:54:21;;;;;;;12.33;4.60;;;;;;;;;;5016987;28;20736;-73
2021/09/04 02:56:47;;;;;;;6.37;5.30;;;;;;;;;;5018085;28;20426;-73
2021/09/04 02:59:13;;;;;;;4.83;4.23;;;;;;;;;;5016949;28;20449;-73
2021/09/04 03:01:39;;;;;;;8.13;4.80;;;;;;;;;;5017394;28;20426;-73
2021/09/04 03:04:05;;;;;;;7.40;5.20;;;;;;;;;;5022519;28;20845;-72
2021/09/04 03:06:31;;;;;;;9.10;5.67;;;;;;;;;;5023629;28;20469;-74
2021/09/04 03:08:57;;;;;;;7.10;5.23;;;;;;;;;;5017793;28;20865;-71
2021/09/04 03:11:23;;;;;;;7.67;5.50;;;;;;;;;;5024028;28;20439;-71
2021/09/04 03:13:50;;;;;;;5.77;5.17;;;;;;;;;;5016688;28;20429;-73
2021/09/04 03:16:16;;;;;;;6.40;5.07;;;;;;;;;;5016514;28;20513;-72
2021/09/04 03:18:42;;;;;;;5.77;5.20;;;;;;;;;;5016835;28;20439;-74
2021/09/04 03:21:08;;;;;;;6.83;5.20;;;;;;;;;;5020847;28;20492;-71
2021/09/04 03:23:34;;;;;;;5.93;5.30;;;;;;;;;;5036143;28;20416;-73
2021/09/04 03:26:00;;;;;;;6.70;5.10;;;;;;;;;;5023339;28;20519;-73
2021/09/04 03:28:26;;;;;;;6.47;5.20;;;;;;;;;;5026940;28;20426;-72
2021/09/04 03:30:52;;;;;;;7.50;4.43;;;;;;;;;;5018641;28;20434;-72
2021/09/04 03:33:18;;;;;;;5.10;4.60;;;;;;;;;;5015670;28;20473;-72
2021/09/04 03:35:44;;;;;;;9.83;5.00;;;;;;;;;;5020381;28;20432;-71
2021/09/04 03:38:10;;;;;;;5.90;4.17;;;;;;;;;;5034938;28;20433;-74
2021/09/04 03:40:36;;;;;;;5.10;4.10;;;;;;;;;;5027983;28;20457;-71
2021/09/04 03:43:02;;;;;;;6.77;4.07;;;;;;;;;;5015686;28;20472;-74
2021/09/04 03:45:28;;;;;;;8.37;4.80;;;;;;;;;;5015879;28;20537;-71
2021/09/04 03:47:54;;;;;;;5.67;4.40;;;;;;;;;;5015183;28;20556;-71
2021/09/04 03:50:20;;;;;;;5.73;4.13;;;;;;;;;;5015651;28;20470;-70
2021/09/04 03:52:46;;;;;;;5.53;4.70;;;;;;;;;;5014403;28;20535;-71
2021/09/04 03:55:12;;;;;;;9.13;4.30;;;;;;;;;;5023249;28;20426;-72
2021/09/04 03:57:38;;;;;;;6.90;4.40;;;;;;;;;;5024349;28;20446;-70
2021/09/04 04:00:05;;;;;;;5.53;4.27;;;;;;;;;;5016414;28;20430;-73
2021/09/04 04:02:31;;;;;;;5.87;5.20;;;;;;;;;;5015249;28;20463;-74
2021/09/04 04:04:57;;;;;;;6.10;4.70;;;;;;;;;;5014333;28;20434;-72
2021/09/04 04:07:23;;;;;;;8.73;4.57;;;;;;;;;;5014682;28;20493;-72
2021/09/04 04:09:49;;;;;;;5.77;4.27;;;;;;;;;;5023731;28;20433;-70
2021/09/04 04:12:15;;;;;;;9.97;4.87;;;;;;;;;;5015291;28;20497;-73
2021/09/04 04:14:41;;;;;;;7.00;4.73;;;;;;;;;;5015146;28;21007;-71
2021/09/04 04:17:07;;;;;;;8.07;6.23;;;;;;;;;;5014787;28;20446;-73
2021/09/04 04:19:33;;;;;;;4.80;4.33;;;;;;;;;;5015274;28;20470;-72
2021/09/04 04:21:59;;;;;;;8.20;4.60;;;;;;;;;;5026590;28;20884;-70
2021/09/04 04:24:25;;;;;;;5.80;4.50;;;;;;;;;;5026973;28;20427;-73
2021/09/04 04:26:51;;;;;;;6.30;4.97;;;;;;;;;;5014471;28;20477;-73
2021/09/04 04:29:17;;;;;;;8.90;5.13;;;;;;;;;;5017005;28;20457;-70
2021/09/04 04:31:43;;;;;;;7.40;5.00;;;;;;;;;;5014930;28;20415;-71
2021/09/04 04:34:09;;;;;;;8.07;5.40;;;;;;;;;;5015085;28;20931;-74
2021/09/04 04:36:35;;;;;;;7.43;4.80;;;;;;;;;;5014200;28;20476;-73
2021/09/04 04:39:01;;;;;;;5.30;4.80;;;;;;;;;;5014891;28;20450;-72
2021/09/04 04:41:27;;;;;;;8.77;5.20;;;;;;;;;;5014766;28;20485;-74
2021/09/04 04:43:54;;;;;;;7.17;4.53;;;;;;;;;;5014977;28;20414;-73
2021/09/04 04:46:20;;;;;;;6.00;4.80;;;;;;;;;;5014704;28;20459;-73
2021/09/04 04:48:46;;;;;;;6.93;4.83;;;;;;;;;;5013768;28;20437;-73
2021/09/04 04:51:12;;;;;;;9.53;5.20;;;;;;;;;;5016946;28;20430;-72
2021/09/04 04:53:39;;;;;;;6.70;4.77;;;;;;;;;;5014424;28;20420;-72
2021/09/04 04:56:05;;;;;;;8.40;5.20;;;;;;;;;;5014540;28;20433;-71
2021/09/04 04:58:31;;;;;;;9.67;5.27;;;;;;;;;;5013850;28;20444;-74
2021/09/04 05:00:57;;;;;;;13.50;5.50;;;;;;;;;;5023359;28;20435;-70
2021/09/04 05:03:23;;;;;;;6.20;5.40;;;;;;;;;;5014300;28;20419;-71
2021/09/04 05:05:50;;;;;;;11.10;6.17;;;;;;;;;;5014438;28;20798;-70
2021/09/04 05:08:16;;;;;;;8.60;6.50;;;;;;;;;;5013755;28;20542;-73
2021/09/04 05:10:42;;;;;;;10.60;6.77;;;;;;;;;;5014923;28;20540;-73
2021/09/04 05:13:08;;;;;;;9.50;7.07;;;;;;;;;;5013870;28;20757;-72
2021/09/04 05:15:34;;;;;;;8.87;6.20;;;;;;;;;;5014580;28;20423;-69
2021/09/04 05:18:00;;;;;;;9.33;6.50;;;;;;;;;;5013658;28;20474;-71
2021/09/04 05:20:26;;;;;;;12.00;7.03;;;;;;;;;;5014424;28;21018;-72
2021/09/04 05:22:52;;;;;;;7.67;6.10;;;;;;;;;;5013684;28;20451;-71
2021/09/04 05:25:18;;;;;;;10.10;6.93;;;;;;;;;;5014063;28;20432;-71
2021/09/04 05:27:45;;;;;;;12.33;7.30;;;;;;;;;;5013579;28;20864;-72
2021/09/04 05:30:11;;;;;;;12.10;6.83;;;;;;;;;;5021004;28;20886;-74
2021/09/04 05:32:37;;;;;;;9.40;6.67;;;;;;;;;;5013731;28;20441;-72
2021/09/04 05:35:04;;;;;;;14.10;7.53;;;;;;;;;;5013698;28;20415;-73
2021/09/04 05:37:30;;;;;;;14.87;8.53;;;;;;;;;;5015101;28;20452;-72
2021/09/04 05:39:56;;;;;;;13.00;7.27;;;;;;;;;;5014040;28;20428;-72
2021/09/04 05:42:22;;;;;;;9.63;7.10;;;;;;;;;;5022079;28;20430;-72
2021/09/04 05:44:48;;;;;;;10.80;7.37;;;;;;;;;;5013727;28;20435;-72
2021/09/04 05:47:15;;;;;;;10.37;7.87;;;;;;;;;;5015724;28;20466;-72
2021/09/04 05:49:41;;;;;;;12.27;8.13;;;;;;;;;;5017783;28;20435;-74
2021/09/04 05:52:07;;;;;;;10.47;7.40;;;;;;;;;;5020693;28;20427;-74
2021/09/04 05:54:33;;;;;;;9.70;7.03;;;;;;;;;;5013114;28;20438;-71
2021/09/04 05:56:59;;;;;;;9.60;6.80;;;;;;;;;;5013095;28;20416;-74
2021/09/04 05:59:25;;;;;;;10.17;6.17;;;;;;;;;;5013653;28;20437;-74
2021/09/04 06:01:51;;;;;;;11.67;7.70;;;;;;;;;;5031089;28;20443;-71
2021/09/04 06:04:17;;;;;;;10.37;7.60;;;;;;;;;;5016270;28;21003;-72
2021/09/04 06:06:43;;;;;;;12.40;7.20;;;;;;;;;;5013126;28;20468;-73
2021/09/04 06:09:09;;;;;;;13.13;7.33;;;;;;;;;;5012297;28;20436;-72
2021/09/04 06:11:35;;;;;;;11.17;7.23;;;;;;;;;;5013606;28;20436;-74
2021/09/04 06:14:01;;;;;;;11.50;8.40;;;;;;;;;;5013050;28;20416;-74
2021/09/04 06:16:27;;;;;;;13.40;8.00;;;;;;;;;;5013444;28;20571;-71
2021/09/04 06:18:54;;;;;;;10.20;8.20;;;;;;;;;;5017006;28;20455;-70
2021/09/04 06:21:20;;;;;;;10.83;7.77;;;;;;;;;;5013306;28;20437;-74
2021/09/04 06:23:46;;;;;;;11.90;7.97;;;;;;;;;;5013257;28;20777;-73
2021/09/04 06:26:12;;;;;;;12.30;8.33;;;;;;;;;;5013885;28;20468;-71
2021/09/04 06:28:38;;;;;;;12.33;7.70;;;;;;;;;;5016141;28;20840;-74
2021/09/04 06:31:04;;;;;;;11.47;7.30;;;;;;;;;;5025131;28;20424;-74
2021/09/04 06:33:30;;;;;;;8.93;7.30;;;;;;;;;;5027033;28;20480;-71
2021/09/04 06:35:56;;;;;;;9.33;7.50;;;;;;;;;;5015980;28;20926;-72
2021/09/04 06:38:23;;;;;;;11.50;7.17;;;;;;;;;;5013282;28;20464;-73
2021/09/04 06:40:49;;;;;;;10.97;7.67;;;;;;;;;;5018501;28;20767;-71
2021/09/04 06:43:15;;;;;;;13.00;7.63;;;;;;;;;;5020218;28;20439;-72
2021/09/04 06:45:41;;;;;;;16.50;8.60;;;;;;;;;;5012864;28;20409;-73
2021/09/04 06:48:08;;;;;;;11.30;7.47;;;;;;;;;;5016346;28;20479;-70
2021/09/04 06:50:34;;;;;;;9.97;8.03;;;;;;;;;;5038342;28;20805;-72
2021/09/04 06:53:01;;;;;;;13.23;8.00;;;;;;;;;;5012904;28;20417;-72
2021/09/04 06:55:27;;;;;;;18.63;11.33;;;;;;;;;;5020168;28;20417;-70
2021/09/04 06:57:53;;;;;;;12.50;8.10;;;;;;;;;;5012536;28;20437;-72
2021/09/04 07:00:20;;;;;;;32.03;22.40;;;;;;;;;;5025022;28;20466;-73
2021/09/04 07:02:46;;;;;;;12.90;10.07;;;;;;;;;;5013402;28;20417;-71
2021/09/04 07:05:12;;;;;;;11.70;8.30;;;;;;;;;;5029006;28;20447;-74
2021/09/04 07:07:38;;;;;;;27.53;20.17;;;;;;;;;;5043248;28;20507;-74
2021/09/04 07:10:04;;;;;;;10.53;7.53;;;;;;;;;;5019596;28;20956;-71
2021/09/04 07:12:30;;;;;;;13.87;8.70;;;;;;;;;;5029477;28;20433;-69
2021/09/04 07:14:56;;;;;;;13.33;9.07;;;;;;;;;;5029884;28;20928;-73
2021/09/04 07:17:22;;;;;;;13.63;8.23;;;;;;;;;;5018335;28;20444;-73
2021/09/04 07:19:48;;;;;;;11.57;7.43;;;;;;;;;;5035615;28;20451;-73
2021/09/04 07:22:15;;;;;;;10.27;7.20;;;;;;;;;;5026045;28;20503;-74
2021/09/04 07:24:41;;;;;;;10.40;7.03;;;;;;;;;;5022437;28;20795;-71
2021/09/04 07:27:07;;;;;;;11.37;6.80;;;;;;;;;;5013899;28;20465;-74
2021/09/04 07:29:33;;;;;;;10.40;6.87;;;;;;;;;;5014345;28;20460;-72
2021/09/04 07:31:59;;;;;;;11.03;6.77;;;;;;;;;;5012343;28;20422;-74
2021/09/04 07:34:25;;;;;;;12.77;7.63;;;;;;;;;;5012340;28;20535;-74
2021/09/04 07:36:51;;;;;;;14.23;7.30;;;;;;;;;;5011894;28;20429;-74
2021/09/04 07:39:17;;;;;;;11.50;7.47;;;;;;;;;;5015259;28;20492;-71
2021/09/04 07:41:43;;;;;;;10.73;7.70;;;;;;;;;;5035292;28;20440;-72
2021/09/04 07:44:09;;;;;;;13.50;7.17;;;;;;;;;;5012067;28;20425;-71
2021/09/04 07:46:35;;;;;;;12.43;6.67;;;;;;;;;;5011478;28;20504;-73
2021/09/04 07:49:01;;;;;;;11.10;6.60;;;;;;;;;;5015794;28;20455;-73
2021/09/04 07:51:28;;;;;;;9.90;7.00;;;;;;;;;;5012542;28;20430;-70
2021/09/04 07:53:54;;;;;;;10.30;6.50;;;;;;;;;;5016413;28;20960;-74
2021/09/04 07:56:20;;;;;;;9.07;6.63;;;;;;;;;;5011783;28;20413;-74
2021/09/04 07:58:46;;;;;;;10.17;6.77;;;;;;;;;;5011729;28;20453;-73
2021/09/04 08:01:12;;;;;;;8.50;5.97;;;;;;;;;;5013187;28;20428;-72
2021/09/04 08:03:38;;;;;;;9.80;5.50;;;;;;;;;;5018098;28;20622;-73
2021/09/04 08:06:05;;;;;;;7.37;5.60;;;;;;;;;;5013870;28;20465;-73
2021/09/04 08:08:31;;;;;;;7.53;6.33;;;;;;;;;;5020497;28;20458;-72
2021/09/04 08:10:57;;;;;;;7.40;5.33;;;;;;;;;;5012614;28;20414;-73
2021/09/04 08:13:24;;;;;;;6.67;5.30;;;;;;;;;;5018358;28;20425;-73
2021/09/04 08:15:51;;;;;;;11.43;5.83;;;;;;;;;;5018244;28;20988;-72
2021/09/04 08:18:17;;;;;;;7.23;5.10;;;;;;;;;;5023212;28;20441;-73
2021/09/04 08:20:43;;;;;;;7.50;5.60;;;;;;;;;;5015235;28;20803;-73
2021/09/04 08:23:09;;;;;;;5.03;4.53;;;;;;;;;;5011436;28;20423;-73
2021/09/04 08:25:36;;;;;;;7.50;4.93;;;;;;;;;;5012659;28;20430;-74
2021/09/04 08:28:05;;;;;;;6.60;5.47;;;;;;;;;;5011051;28;20466;-73
2021/09/04 08:30:31;;;;;;;6.00;4.77;;;;;;;;;;5026647;28;20793;-73
2021/09/04 08:32:57;;;;;;;8.50;4.93;;;;;;;;;;5011412;28;20480;-72
2021/09/04 08:35:23;;;;;;;5.90;4.30;;;;;;;;;;5011362;28;20465;-71
2021/09/04 08:37:52;;;;;;;5.80;5.10;;;;;;;;;;5010818;28;20478;-74
2021/09/04 08:40:19;;;;;;;6.50;4.90;;;;;;;;;;5016213;28;20459;-74
2021/09/04 08:42:45;;;;;;;7.57;5.23;;;;;;;;;;5019492;28;20885;-74
2021/09/04 08:45:11;;;;;;;6.00;4.83;;;;;;;;;;5010974;28;20448;-72
2021/09/04 08:47:39;;;;;;;7.27;5.80;;;;;;;;;;5017128;28;20501;-74
2021/09/04 08:50:05;;;;;;;6.43;5.47;;;;;;;;;;5015444;28;20428;-72
2021/09/04 08:52:32;;;;;;;5.60;4.60;;;;;;;;;;5010734;28;20413;-73
2021/09/04 08:54:58;;;;;;;6.20;5.50;;;;;;;;;;5010706;28;20942;-71
2021/09/04 08:57:24;;;;;;;7.00;5.27;;;;;;;;;;5020223;28;20425;-71
2021/09/04 08:59:50;;;;;;;6.17;4.80;;;;;;;;;;5016482;28;20569;-74
2021/09/04 09:02:17;;;;;;;10.90;5.50;;;;;;;;;;5017357;28;20454;-73
2021/09/04 09:04:44;;;;;;;7.03;5.33;;;;;;;;;;5010567;28;20799;-74
2021/09/04 09:07:10;;;;;;;6.13;4.83;;;;;;;;;;5009892;28;20501;-74
2021/09/04 09:09:36;;;;;;;7.73;5.27;;;;;;;;;;5010470;28;20447;-72
2021/09/04 09:12:09;;;;;;;8.37;5.10;;;;;;;;;;5008910;28;21274;-73
2021/09/04 09:14:53;;;;;;;7.10;5.30;;;;;;;;;;5010567;28;20418;-72
2021/09/04 09:17:23;;;;;;;9.77;4.90;;;;;;;;;;5011344;28;20441;-73
2021/09/04 09:19:49;;;;;;;6.83;5.60;;;;;;;;;;5010145;28;20449;-70
2021/09/04 09:22:16;;;;;;;7.43;5.43;;;;;;;;;;5010015;28;20421;-71
2021/09/04 09:24:42;;;;;;;7.97;5.07;;;;;;;;;;5010184;28;20428;-72
2021/09/04 09:27:08;;;;;;;5.67;4.83;;;;;;;;;;5009622;28;20461;-71
2021/09/04 09:29:35;;;;;;;6.27;5.03;;;;;;;;;;5019806;28;20447;-74
2021/09/04 09:32:02;;;;;;;7.47;5.47;;;;;;;;;;5013234;28;20423;-74
2021/09/04 09:34:29;;;;;;;5.60;4.97;;;;;;;;;;5010285;28;20424;-72
2021/09/04 09:36:59;;;;;;;7.80;5.43;;;;;;;;;;5009205;28;20431;-71
2021/09/04 09:39:26;;;;;;;8.97;5.00;;;;;;;;;;5010007;28;20449;-74
2021/09/04 09:41:52;;;;;;;7.70;5.50;;;;;;;;;;5009889;28;20524;-73
2021/09/04 09:44:22;;;;;;;7.07;5.10;;;;;;;;;;5009632;28;20459;-73
2021/09/04 09:46:53;;;;;;;5.70;5.10;;;;;;;;;;5009601;28;20468;-75
2021/09/04 09:49:25;;;;;;;6.67;5.33;;;;;;;;;;5012719;28;20439;-72
2021/09/04 09:51:51;;;;;;;9.20;6.07;;;;;;;;;;5014987;28;20778;-74
2021/09/04 09:54:17;;;;;;;6.83;5.27;;;;;;;;;;5022864;28;20838;-74
2021/09/04 09:56:43;;;;;;;6.53;4.80;;;;;;;;;;5010894;28;20531;-73
2021/09/04 09:59:11;;;;;;;10.67;5.50;;;;;;;;;;5018516;28;20504;-73
2021/09/04 10:01:38;;;;;;;7.93;5.47;;;;;;;;;;5021377;28;20996;-71
2021/09/04 10:04:04;;;;;;;9.97;5.60;;;;;;;;;;5011827;28;20504;-73
2021/09/04 10:06:30;;;;;;;7.13;6.00;;;;;;;;;;5012351;28;20559;-71
2021/09/04 10:08:56;;;;;;;7.50;5.53;;;;;;;;;;5017881;28;21020;-72
2021/09/04 10:11:22;;;;;;;6.40;5.30;;;;;;;;;;5009346;28;20950;-71
2021/09/04 10:13:48;;;;;;;8.67;5.70;;;;;;;;;;5010077;28;20418;-73
2021/09/04 10:16:14;;;;;;;7.73;5.23;;;;;;;;;;5010037;28;20834;-75
2021/09/04 10:18:41;;;;;;;8.27;5.00;;;;;;;;;;5009424;28;20485;-71
2021/09/04 10:21:11;;;;;;;5.83;5.20;;;;;;;;;;5009890;28;20512;-71
2021/09/04 10:23:38;;;;;;;6.80;5.43;;;;;;;;;;5012473;28;20436;-73
2021/09/04 10:26:34;;;;;;;6.43;5.03;;;;;;;;;;5017431;28;20429;-71
2021/09/04 10:28:59;;;;;;;8.10;5.10;;;;;;;;;;5005838;28;20459;-70
2021/09/04 10:31:44;;;;;;;6.37;4.77;;;;;;;;;;5013264;28;20418;-73
2021/09/04 10:34:14;;;;;;;5.27;4.47;;;;;;;;;;5015489;28;20763;-70
2021/09/04 10:36:53;;;;;;;6.80;5.47;;;;;;;;;;5013876;28;20432;-73
2021/09/04 10:39:21;;;;;;;4.77;3.97;;;;;;;;;;5021128;28;20449;-74
2021/09/04 10:41:47;;;;;;;6.10;5.50;;;;;;;;;;5009338;28;20433;-73
2021/09/04 10:44:13;;;;;;;5.97;5.13;;;;;;;;;;5009616;28;20421;-72
2021/09/04 10:46:39;;;;;;;8.17;5.50;;;;;;;;;;5008644;28;20469;-73
2021/09/04 10:49:06;;;;;;;5.83;5.30;;;;;;;;;;5014269;28;20872;-73
2021/09/04 10:51:45;;;;;;;7.07;5.63;;;;;;;;;;5025226;28;20499;-73
2021/09/04 10:54:11;;;;;;;6.40;5.30;;;;;;;;;;5027659;28;20429;-71
2021/09/04 10:56:40;;;;;;;6.73;5.20;;;;;;;;;;5024486;28;20426;-72
2021/09/04 10:59:06;;;;;;;7.10;5.40;;;;;;;;;;5013393;28;20449;-73
2021/09/04 11:01:37;;;;;;;8.60;5.03;;;;;;;;;;5015351;28;20416;-69
2021/09/04 11:04:04;;;;;;;6.10;4.80;;;;;;;;;;5029402;28;20850;-71
2021/09/04 11:06:30;;;;;;;7.47;5.47;;;;;;;;;;5012657;28;20507;-71
2021/09/04 11:08:56;;;;;;;5.47;4.60;;;;;;;;;;5013078;28;20429;-69
2021/09/04 11:11:26;;;;;;;7.67;5.83;;;;;;;;;;5012784;28;20418;-73
2021/09/04 11:13:53;;;;;;;8.30;5.77;;;;;;;;;;5012995;28;20504;-72
2021/09/04 11:16:28;;;;;;;5.37;4.87;;;;;;;;;;5012663;28;20429;-75
2021/09/04 11:18:55;;;;;;;8.47;5.80;;;;;;;;;;5021196;28;20441;-73
2021/09/04 11:21:21;;;;;;;7.57;5.33;;;;;;;;;;5015363;28;20501;-72
2021/09/04 11:23:50;;;;;;;5.47;4.97;;;;;;;;;;5012710;28;20961;-73
2021/09/04 11:26:16;;;;;;;4.83;4.37;;;;;;;;;;5012246;28;20464;-73
2021/09/04 11:28:42;;;;;;;6.27;4.80;;;;;;;;;;5014430;28;20531;-73
2021/09/04 11:31:08;;;;;;;4.70;4.30;;;;;;;;;;5014182;28;20795;-73
2021/09/04 11:33:34;;;;;;;7.53;4.60;;;;;;;;;;5014773;28;20430;-70
2021/09/04 11:36:00;;;;;;;5.30;4.50;;;;;;;;;;5015861;28;20429;-73
2021/09/04 11:38:26;;;;;;;5.47;4.30;;;;;;;;;;5018389;28;20488;-72
2021/09/04 11:40:53;;;;;;;5.13;4.63;;;;;;;;;;5024388;28;20464;-73
2021/09/04 11:43:26;;;;;;;5.40;4.90;;;;;;;;;;5012148;28;20424;-72
2021/09/04 11:46:03;;;;;;;5.83;4.63;;;;;;;;;;5018469;28;20433;-72
2021/09/04 11:48:29;;;;;;;4.60;4.20;;;;;;;;;;5010417;28;20448;-71
2021/09/04 11:51:03;;;;;;;5.77;5.07;;;;;;;;;;5027958;28;20451;-73
2021/09/04 11:53:29;;;;;;;4.70;4.20;;;;;;;;;;5027117;28;20436;-71
2021/09/04 11:55:55;;;;;;;4.77;4.13;;;;;;;;;;5014613;28;20414;-70
2021/09/04 11:58:21;;;;;;;5.17;4.67;;;;;;;;;;5022022;28;20908;-74
2021/09/04 12:00:47;;;;;;;4.93;3.93;;;;;;;;;;5013697;28;20414;-72
2021/09/04 12:03:14;;;;;;;4.60;4.20;;;;;;;;;;5011955;28;20899;-71
2021/09/04 12:05:45;;;;;;;4.73;4.03;;;;;;;;;;5017281;28;20787;-72
2021/09/04 12:08:14;;;;;;;5.13;4.63;;;;;;;;;;5011373;28;20477;-72
2021/09/04 12:10:41;;;;;;;4.80;4.10;;;;;;;;;;5011457;28;20461;-74
2021/09/04 12:13:11;;;;;;;9.33;5.90;;;;;;;;;;5011571;28;20413;-70
2021/09/04 12:15:38;;;;;;;5.83;5.13;;;;;;;;;;5012463;28;20430;-73
2021/09/04 12:18:06;;;;;;;7.10;4.00;;;;;;;;;;5022620;28;20491;-74
2021/09/04 12:20:35;;;;;;;3.60;3.30;;;;;;;;;;5023551;28;20436;-71
2021/09/04 12:23:12;;;;;;;6.20;4.63;;;;;;;;;;5011418;28;20445;-74
2021/09/04 12:25:39;;;;;;;6.33;4.00;;;;;;;;;;5011719;28;20421;-73
2021/09/04 12:28:06;;;;;;;5.93;4.40;;;;;;;;;;5011154;28;20473;-72
2021/09/04 12:30:33;;;;;;;4.63;4.13;;;;;;;;;;5020260;28;20472;-71
2021/09/04 12:33:06;;;;;;;5.10;4.10;;;;;;;;;;5011719;28;21070;-71
2021/09/04 12:35:48;;;;;;;6.00;5.40;;;;;;;;;;5019772;28;20430;-72
2021/09/04 12:38:22;;;;;;;8.93;4.20;;;;;;;;;;5027693;28;20535;-71
2021/09/04 12:41:01;;;;;;;5.57;5.07;;;;;;;;;;5023601;28;20444;-73
2021/09/04 12:43:28;;;;;;;5.70;4.10;;;;;;;;;;5014508;28;20431;-72
2021/09/04 12:46:01;;;;;;;5.90;4.50;;;;;;;;;;5015806;28;20426;-70
2021/09/04 12:48:28;;;;;;;4.33;3.63;;;;;;;;;;5016489;28;20559;-73
2021/09/04 12:51:07;;;;;;;5.67;3.80;;;;;;;;;;5030296;28;20537;-71
2021/09/04 12:53:33;;;;;;;4.00;3.10;;;;;;;;;;5022807;28;20436;-71
2021/09/04 12:55:59;;;;;;;6.60;3.97;;;;;;;;;;5013440;28;20409;-74
2021/09/04 12:58:25;;;;;;;5.10;3.40;;;;;;;;;;5014961;28;20518;-71
2021/09/04 13:01:04;;;;;;;5.20;3.80;;;;;;;;;;5012295;28;20445;-72
2021/09/04 13:03:31;;;;;;;4.90;4.40;;;;;;;;;;5010770;28;20437;-72
2021/09/04 13:05:57;;;;;;;3.60;3.17;;;;;;;;;;5010544;28;20983;-72
2021/09/04 13:08:23;;;;;;;5.50;3.60;;;;;;;;;;5015277;28;20547;-74
2021/09/04 13:10:49;;;;;;;3.93;3.53;;;;;;;;;;5010120;28;20427;-71
2021/09/04 13:13:15;;;;;;;6.00;4.07;;;;;;;;;;5010436;28;20517;-73
2021/09/04 13:15:41;;;;;;;5.23;4.00;;;;;;;;;;5010477;28;20500;-71
2021/09/04 13:18:08;;;;;;;4.27;3.57;;;;;;;;;;5016003;28;20485;-72
2021/09/04 13:20:34;;;;;;;4.27;3.87;;;;;;;;;;5016897;28;20416;-74
2021/09/04 13:23:00;;;;;;;6.53;4.23;;;;;;;;;;5020892;28;20523;-70
2021/09/04 13:25:26;;;;;;;4.60;3.50;;;;;;;;;;5019079;28;20508;-70
2021/09/04 13:27:52;;;;;;;4.37;3.80;;;;;;;;;;5011931;28;20915;-71
2021/09/04 13:30:18;;;;;;;4.20;3.80;;;;;;;;;;5016923;28;20889;-71
2021/09/04 13:32:44;;;;;;;4.33;3.77;;;;;;;;;;5010613;28;20432;-70
2021/09/04 13:35:10;;;;;;;5.27;3.73;;;;;;;;;;5010241;28;20421;-72
2021/09/04 13:37:36;;;;;;;5.43;4.93;;;;;;;;;;5013881;28;20453;-72
2021/09/04 13:40:03;;;;;;;4.90;3.80;;;;;;;;;;5016668;28;20421;-72
2021/09/04 13:42:29;;;;;;;5.70;4.07;;;;;;;;;;5009020;28;20446;-72
2021/09/04 13:44:55;;;;;;;4.37;3.87;;;;;;;;;;5009908;28;20417;-73
2021/09/04 13:47:21;;;;;;;9.23;4.10;;;;;;;;;;5010308;28;20567;-71
2021/09/04 13:49:47;;;;;;;5.40;4.53;;;;;;;;;;5022163;28;20773;-69
2021/09/04 13:52:13;;;;;;;6.27;4.50;;;;;;;;;;5010205;28;20465;-72
2021/09/04 13:54:39;;;;;;;7.17;5.10;;;;;;;;;;5023152;28;20814;-71
2021/09/04 13:57:05;;;;;;;5.20;4.70;;;;;;;;;;5016700;28;20472;-74
2021/09/04 13:59:31;;;;;;;4.23;3.80;;;;;;;;;;5009964;28;20449;-72
2021/09/04 14:01:57;;;;;;;5.20;4.27;;;;;;;;;;5010164;28;20437;-70
2021/09/04 14:04:23;;;;;;;5.53;4.60;;;;;;;;;;5009784;28;20417;-72
2021/09/04 14:06:49;;;;;;;7.20;3.90;;;;;;;;;;5009495;28;20879;-72
2021/09/04 14:09:15;;;;;;;5.50;4.17;;;;;;;;;;5009561;28;20499;-74
2021/09/04 14:11:41;;;;;;;6.40;3.90;;;;;;;;;;5009911;28;20519;-74
2021/09/04 14:14:07;;;;;;;4.90;4.50;;;;;;;;;;5009673;28;20448;-72
2021/09/04 14:16:33;;;;;;;7.20;4.07;;;;;;;;;;5017247;28;20464;-73
2021/09/04 14:18:59;;;;;;;4.97;4.47;;;;;;;;;;5013204;28;20707;-72
2021/09/04 14:21:25;;;;;;;5.13;4.63;;;;;;;;;;5009617;28;20452;-71
2021/09/04 14:23:51;;;;;;;5.20;4.40;;;;;;;;;;5012914;28;20429;-71
2021/09/04 14:26:17;;;;;;;5.57;4.20;;;;;;;;;;5013753;28;20965;-71
2021/09/04 14:28:43;;;;;;;5.30;4.80;;;;;;;;;;5013834;28;20449;-72
2021/09/04 14:31:09;;;;;;;5.23;4.73;;;;;;;;;;5013562;28;20471;-75
2021/09/04 14:33:35;;;;;;;4.80;4.10;;;;;;;;;;5013889;28;20464;-72
2021/09/04 14:36:01;;;;;;;4.77;4.33;;;;;;;;;;5013440;28;20421;-72
2021/09/04 14:38:29;;;;;;;5.73;5.23;;;;;;;;;;5024013;28;20507;-73